createdAt,value
2023-09-28T00:01:41.884Z,3.35
2023-09-28T00:04:08.768Z,3.47
2023-09-28T00:06:36.084Z,3.20
2023-09-28T00:09:02.934Z,3.80
2023-09-28T00:11:29.754Z,3.33
2023-09-28T00:13:56.715Z,3.33
2023-09-28T00:16:23.934Z,3.67
2023-09-28T00:18:50.716Z,3.77
2023-09-28T00:21:17.421Z,3.28
2023-09-28T00:23:44.164Z,3.47
2023-09-28T00:26:11.000Z,4.70
2023-09-28T00:28:37.768Z,3.40
2023-09-28T00:31:06.773Z,2.97
2023-09-28T00:33:33.584Z,3.20
2023-09-28T00:36:00.371Z,3.03
2023-09-28T00:38:27.134Z,3.43
2023-09-28T00:40:53.964Z,3.57
2023-09-28T00:43:27.841Z,3.33
2023-09-28T00:45:54.950Z,3.53
2023-09-28T00:48:21.999Z,3.35
2023-09-28T00:50:52.030Z,3.67
2023-09-28T00:53:22.741Z,4.03
2023-09-28T00:55:49.950Z,3.50
2023-09-28T00:58:17.138Z,3.45
2023-09-28T01:00:44.205Z,3.35
2023-09-28T01:03:13.371Z,3.40
2023-09-28T01:05:42.944Z,3.72
2023-09-28T01:08:12.768Z,3.63
2023-09-28T01:10:42.035Z,3.10
2023-09-28T01:13:13.932Z,3.22
2023-09-28T01:15:48.108Z,4.03
2023-09-28T01:18:19.828Z,3.40
2023-09-28T01:20:48.990Z,3.17
2023-09-28T01:23:16.316Z,3.22
2023-09-28T01:25:46.703Z,3.42
2023-09-28T01:28:14.359Z,3.40
2023-09-28T01:33:10.592Z,4.00
2023-09-28T01:35:37.935Z,3.50
2023-09-28T01:38:13.660Z,3.78
2023-09-28T01:40:41.300Z,3.60
2023-09-28T01:43:08.788Z,3.60
2023-09-28T01:45:35.592Z,4.10
2023-09-28T01:48:04.480Z,3.90
2023-09-28T01:50:32.274Z,4.10
2023-09-28T01:52:59.056Z,4.28
2023-09-28T01:55:25.925Z,3.90
2023-09-28T01:57:52.823Z,4.30
2023-09-28T02:00:24.814Z,4.13
2023-09-28T02:02:54.380Z,3.55
2023-09-28T02:05:23.013Z,3.13
2023-09-28T02:07:50.728Z,3.55
2023-09-28T02:10:17.866Z,3.60
2023-09-28T02:12:45.589Z,3.00
2023-09-28T02:15:16.396Z,3.17
2023-09-28T02:17:45.782Z,3.13
2023-09-28T02:20:17.813Z,3.63
2023-09-28T02:22:46.706Z,3.35
2023-09-28T02:25:27.788Z,3.33
2023-09-28T02:27:54.808Z,2.95
2023-09-28T02:30:26.833Z,3.35
2023-09-28T02:32:57.593Z,3.15
2023-09-28T02:35:25.617Z,3.10
2023-09-28T02:37:53.621Z,3.35
2023-09-28T02:40:21.481Z,3.20
2023-09-28T02:42:51.564Z,3.45
2023-09-28T02:45:18.897Z,3.22
2023-09-28T02:47:48.436Z,3.65
2023-09-28T02:50:18.813Z,3.55
2023-09-28T02:52:48.963Z,3.55
2023-09-28T02:55:19.921Z,3.00
2023-09-28T02:57:48.571Z,3.72
2023-09-28T03:00:25.403Z,3.35
2023-09-28T03:02:53.659Z,3.80
2023-09-28T03:05:24.629Z,4.35
2023-09-28T03:07:52.357Z,3.65
2023-09-28T03:10:20.835Z,3.45
2023-09-28T03:12:49.009Z,3.90
2023-09-28T03:15:16.010Z,3.70
2023-09-28T03:17:43.800Z,3.40
2023-09-28T03:20:15.293Z,3.88
2023-09-28T03:22:43.985Z,4.00
2023-09-28T03:25:15.354Z,4.40
2023-09-28T03:27:42.890Z,4.30
2023-09-28T03:30:11.852Z,3.97
2023-09-28T03:32:40.304Z,3.78
2023-09-28T03:35:11.878Z,4.55
2023-09-28T03:37:39.300Z,3.75
2023-09-28T03:40:12.249Z,3.75
2023-09-28T03:42:40.135Z,4.47
2023-09-28T03:45:09.917Z,3.83
2023-09-28T03:47:40.992Z,3.50
2023-09-28T03:50:12.465Z,3.60
2023-09-28T03:52:40.602Z,4.10
2023-09-28T03:55:11.985Z,3.67
2023-09-28T03:57:39.867Z,3.67
2023-09-28T04:00:08.187Z,4.47
2023-09-28T04:02:35.158Z,4.88
2023-09-28T04:05:02.017Z,3.93
2023-09-28T04:07:29.137Z,4.33
2023-09-28T04:09:56.057Z,5.00
2023-09-28T04:12:23.031Z,4.37
2023-09-28T04:14:50.062Z,4.17
2023-09-28T04:17:17.736Z,4.10
2023-09-28T04:22:11.344Z,4.83
2023-09-28T04:24:38.136Z,5.30
2023-09-28T04:27:05.103Z,5.17
2023-09-28T04:29:32.071Z,5.20
2023-09-28T04:31:58.891Z,8.17
2023-09-28T04:34:25.954Z,21.03
2023-09-28T04:36:52.692Z,6.20
2023-09-28T04:39:19.963Z,5.53
2023-09-28T04:41:47.527Z,5.28
2023-09-28T04:44:14.335Z,5.15
2023-09-28T04:46:41.157Z,6.40
2023-09-28T04:49:09.311Z,5.20
2023-09-28T04:51:36.084Z,5.55
2023-09-28T04:54:05.523Z,6.15
2023-09-28T04:56:33.450Z,5.30
2023-09-28T04:59:04.059Z,5.70
2023-09-28T05:01:32.279Z,5.60
2023-09-28T05:03:59.318Z,5.35
2023-09-28T05:06:26.128Z,5.73
2023-09-28T05:08:52.891Z,5.85
2023-09-28T05:11:19.727Z,5.68
2023-09-28T05:13:46.864Z,5.87
2023-09-28T05:16:13.673Z,5.97
2023-09-28T05:18:40.496Z,5.70
2023-09-28T05:21:07.281Z,5.60
2023-09-28T05:23:34.113Z,6.10
2023-09-28T05:26:02.723Z,7.27
2023-09-28T05:28:29.522Z,6.70
2023-09-28T05:30:56.399Z,5.00
2023-09-28T05:33:24.035Z,5.63
2023-09-28T05:35:50.789Z,5.65
2023-09-28T05:38:17.846Z,5.93
2023-09-28T05:40:44.662Z,6.32
2023-09-28T05:43:11.514Z,8.55
2023-09-28T05:45:38.813Z,7.23
2023-09-28T05:48:05.715Z,6.22
2023-09-28T05:50:35.378Z,5.97
2023-09-28T05:53:02.640Z,5.97
2023-09-28T05:55:29.413Z,5.55
2023-09-28T05:57:56.182Z,4.47
2023-09-28T06:00:23.064Z,6.05
2023-09-28T06:02:49.904Z,6.20
2023-09-28T06:05:17.206Z,5.83
2023-09-28T06:07:45.704Z,4.82
2023-09-28T06:10:12.490Z,5.55
2023-09-28T06:12:39.283Z,5.07
2023-09-28T06:15:10.353Z,4.83
2023-09-28T06:17:37.286Z,5.18
2023-09-28T06:20:06.856Z,8.45
2023-09-28T06:22:34.907Z,9.65
2023-09-28T06:25:03.475Z,5.72
2023-09-28T06:27:30.398Z,5.30
2023-09-28T06:33:40.289Z,5.07
2023-09-28T06:36:07.853Z,5.85
2023-09-28T06:38:34.771Z,6.00
2023-09-28T06:41:01.726Z,6.30
2023-09-28T06:43:28.527Z,7.50
2023-09-28T06:45:55.667Z,5.83
2023-09-28T06:48:27.272Z,5.25
2023-09-28T06:50:58.187Z,5.20
2023-09-28T06:53:26.092Z,4.95
2023-09-28T06:56:04.073Z,4.82
2023-09-28T06:58:40.790Z,6.57
2023-09-28T07:01:07.569Z,6.65
2023-09-28T07:03:34.387Z,5.33
2023-09-28T07:06:02.287Z,5.07
2023-09-28T07:08:29.128Z,5.03
2023-09-28T07:10:55.882Z,5.20
2023-09-28T07:13:22.714Z,4.70
2023-09-28T07:15:51.022Z,5.50
2023-09-28T07:18:18.124Z,4.70
2023-09-28T07:20:45.614Z,5.18
2023-09-28T07:23:12.521Z,5.10
2023-09-28T07:25:39.276Z,5.10
2023-09-28T07:28:06.279Z,8.73
2023-09-28T07:30:33.004Z,29.20
2023-09-28T07:32:59.928Z,7.10
2023-09-28T07:35:27.037Z,7.05
2023-09-28T07:37:54.112Z,7.00
2023-09-28T07:40:44.241Z,5.47
2023-09-28T07:43:13.050Z,6.25
2023-09-28T07:45:39.883Z,5.72
2023-09-28T07:48:07.296Z,20.17
2023-09-28T07:50:34.171Z,11.20
2023-09-28T07:53:01.194Z,11.40
2023-09-28T07:55:27.946Z,5.25
2023-09-28T07:58:00.193Z,5.57
2023-09-28T08:00:29.601Z,5.68
2023-09-28T08:02:56.858Z,6.37
2023-09-28T08:05:23.719Z,5.03
2023-09-28T08:08:00.138Z,5.27
2023-09-28T08:10:37.668Z,5.10
2023-09-28T08:13:04.679Z,4.85
2023-09-28T08:15:37.230Z,6.30
2023-09-28T08:18:05.426Z,5.13
2023-09-28T08:20:35.560Z,5.68
2023-09-28T08:23:04.874Z,5.18
2023-09-28T08:25:32.183Z,4.90
2023-09-28T08:27:59.063Z,5.25
2023-09-28T08:30:25.896Z,5.22
2023-09-28T08:32:55.039Z,6.05
2023-09-28T08:35:22.370Z,4.63
2023-09-28T08:40:16.450Z,5.00
2023-09-28T08:42:47.679Z,5.22
2023-09-28T08:45:17.630Z,4.93
2023-09-28T08:47:52.631Z,4.32
2023-09-28T08:50:25.351Z,3.97
2023-09-28T08:52:52.811Z,4.03
2023-09-28T08:57:47.902Z,4.18
2023-09-28T09:00:16.002Z,4.03
2023-09-28T09:02:46.428Z,4.30
2023-09-28T09:05:17.230Z,4.40
2023-09-28T09:07:44.650Z,5.07
2023-09-28T09:12:40.697Z,4.55
2023-09-28T09:17:35.205Z,4.43
2023-09-28T09:20:06.595Z,4.80
2023-09-28T09:22:44.912Z,4.43
2023-09-28T09:25:20.400Z,4.13
2023-09-28T09:27:47.172Z,4.32
2023-09-28T09:30:16.394Z,3.90
2023-09-28T09:32:44.491Z,3.53
2023-09-28T09:35:14.092Z,4.32
2023-09-28T09:37:52.182Z,4.88
2023-09-28T09:40:19.627Z,5.22
2023-09-28T09:42:46.387Z,4.82
2023-09-28T09:45:13.687Z,4.10
2023-09-28T09:47:59.652Z,5.22
2023-09-28T09:50:30.354Z,3.42
2023-09-28T09:52:58.373Z,4.93
2023-09-28T09:55:25.739Z,5.75
2023-09-28T09:58:00.257Z,4.90
2023-09-28T10:00:29.982Z,7.15
2023-09-28T10:02:57.542Z,4.68
2023-09-28T10:05:28.573Z,6.43
2023-09-28T10:07:57.787Z,6.40
2023-09-28T10:10:28.705Z,4.47
2023-09-28T10:12:58.724Z,7.65
2023-09-28T10:15:27.262Z,5.47
2023-09-28T10:17:54.936Z,6.38
2023-09-28T10:20:22.004Z,4.57
2023-09-28T10:22:49.335Z,5.55
2023-09-28T10:25:19.842Z,4.95
2023-09-28T10:27:46.828Z,4.95
2023-09-28T10:30:24.185Z,4.47
2023-09-28T10:35:28.298Z,5.50
2023-09-28T10:38:22.163Z,4.45
2023-09-28T10:41:03.980Z,10.52
2023-09-28T10:43:38.866Z,9.20
2023-09-28T10:46:07.567Z,4.88
2023-09-28T10:48:48.230Z,5.05
2023-09-28T10:51:19.721Z,4.43
2023-09-28T10:53:47.208Z,5.57
2023-09-28T10:56:14.576Z,6.18
2023-09-28T11:01:14.125Z,4.57
2023-09-28T11:03:41.783Z,5.38
2023-09-28T11:06:11.483Z,4.88
2023-09-28T11:08:38.873Z,6.00
2023-09-28T11:11:06.894Z,4.20
2023-09-28T11:13:34.394Z,4.65
2023-09-28T11:16:01.803Z,4.78
2023-09-28T11:21:00.252Z,4.10
2023-09-28T11:23:27.862Z,4.03
2023-09-28T11:25:55.406Z,4.60
2023-09-28T11:28:25.322Z,4.72
2023-09-28T11:31:15.293Z,5.75
2023-09-28T11:33:46.513Z,5.20
2023-09-28T11:36:21.755Z,4.93
2023-09-28T11:38:50.347Z,5.03
2023-09-28T11:41:17.643Z,6.03
2023-09-28T11:46:14.357Z,7.03
2023-09-28T11:48:41.175Z,6.50
2023-09-28T11:51:10.187Z,5.47
2023-09-28T11:53:43.338Z,6.40
2023-09-28T11:56:13.452Z,4.63
2023-09-28T11:58:40.715Z,5.95
2023-09-28T12:01:07.667Z,3.72
2023-09-28T12:03:34.704Z,3.38
2023-09-28T12:06:03.427Z,4.65
2023-09-28T12:08:30.437Z,4.72
2023-09-28T12:11:01.726Z,5.80
2023-09-28T12:13:28.753Z,3.90
2023-09-28T12:15:56.850Z,3.08
2023-09-28T12:18:23.802Z,5.38
2023-09-28T12:20:50.867Z,4.22
2023-09-28T12:23:19.663Z,3.70
2023-09-28T12:25:46.618Z,3.92
2023-09-28T12:28:13.444Z,3.97
2023-09-28T12:30:40.632Z,6.07
2023-09-28T12:35:37.694Z,4.25
2023-09-28T12:38:06.163Z,4.75
2023-09-28T12:40:35.842Z,4.00
2023-09-28T12:43:07.097Z,3.50
2023-09-28T12:45:34.929Z,3.65
2023-09-28T12:48:03.553Z,3.13
2023-09-28T12:50:31.198Z,3.53
2023-09-28T12:52:58.935Z,2.97
2023-09-28T12:55:26.586Z,3.28
2023-09-28T12:57:55.604Z,3.55
2023-09-28T13:00:26.024Z,3.25
2023-09-28T13:02:53.617Z,3.45
2023-09-28T13:05:21.028Z,3.67
2023-09-28T13:07:48.115Z,3.97
2023-09-28T13:10:17.824Z,3.55
2023-09-28T13:12:44.959Z,3.50
2023-09-28T13:17:42.715Z,3.25
2023-09-28T13:20:10.916Z,3.45
2023-09-28T13:22:38.682Z,3.53
2023-09-28T13:25:07.366Z,3.28
2023-09-28T13:27:35.899Z,3.40
2023-09-28T13:30:09.841Z,3.40
2023-09-28T13:32:39.688Z,3.30
2023-09-28T13:35:08.227Z,3.45
2023-09-28T13:37:34.968Z,3.55
2023-09-28T13:40:02.335Z,3.60
2023-09-28T13:42:29.056Z,2.92
2023-09-28T13:45:00.921Z,3.22
2023-09-28T13:47:28.173Z,3.17
2023-09-28T13:49:56.744Z,3.67
2023-09-28T13:52:25.327Z,3.15
2023-09-28T13:54:52.132Z,3.75
2023-09-28T13:57:19.387Z,3.95
2023-09-28T13:59:46.960Z,3.30
2023-09-28T14:02:15.284Z,3.88
2023-09-28T14:04:42.195Z,3.50
2023-09-28T14:07:09.027Z,3.35
2023-09-28T14:09:36.257Z,3.63
2023-09-28T14:12:03.134Z,3.05
2023-09-28T14:14:32.405Z,4.38
2023-09-28T14:17:08.456Z,4.40
2023-09-28T14:19:36.822Z,3.50
2023-09-28T14:22:04.618Z,3.60
2023-09-28T14:24:32.863Z,3.92
2023-09-28T14:27:00.358Z,3.72
2023-09-28T14:29:27.144Z,3.38
2023-09-28T14:31:54.375Z,3.58
2023-09-28T14:34:24.388Z,3.90
2023-09-28T14:36:51.324Z,3.75
2023-09-28T14:39:18.276Z,3.40
2023-09-28T14:41:45.374Z,3.90
2023-09-28T14:46:39.400Z,4.60
2023-09-28T14:49:06.243Z,6.30
2023-09-28T14:51:33.036Z,4.70
2023-09-28T14:53:59.840Z,4.95
2023-09-28T14:56:26.602Z,3.70
2023-09-28T14:58:54.812Z,4.38
2023-09-28T15:01:21.909Z,3.85
2023-09-28T15:03:49.572Z,3.42
2023-09-28T15:06:16.325Z,3.97
2023-09-28T15:08:43.490Z,4.18
2023-09-28T15:13:39.061Z,3.83
2023-09-28T15:16:08.201Z,3.95
2023-09-28T15:18:35.035Z,3.83
2023-09-28T15:21:06.931Z,3.78
2023-09-28T15:23:33.943Z,4.38
2023-09-28T15:26:06.497Z,4.25
2023-09-28T15:28:34.304Z,3.78
2023-09-28T15:31:01.976Z,3.55
2023-09-28T15:33:29.583Z,3.80
2023-09-28T15:35:58.989Z,4.00
2023-09-28T15:38:26.748Z,4.03
2023-09-28T15:40:54.195Z,3.95
2023-09-28T15:43:21.364Z,4.60
2023-09-28T15:45:49.699Z,4.10
2023-09-28T15:48:16.562Z,3.97
2023-09-28T15:50:43.506Z,6.80
2023-09-28T15:53:10.414Z,3.65
2023-09-28T15:55:37.221Z,5.82
2023-09-28T15:58:04.304Z,3.95
2023-09-28T16:00:38.026Z,4.15
2023-09-28T16:03:06.232Z,8.65
2023-09-28T16:05:33.264Z,4.75
2023-09-28T16:08:00.661Z,3.80
2023-09-28T16:10:27.671Z,3.55
2023-09-28T16:12:55.018Z,3.63
2023-09-28T16:15:21.805Z,4.60
2023-09-28T16:17:48.794Z,4.07
2023-09-28T16:20:15.815Z,4.05
2023-09-28T16:22:43.124Z,4.55
2023-09-28T16:25:10.229Z,3.95
2023-09-28T16:27:37.231Z,5.82
2023-09-28T16:30:04.330Z,4.43
2023-09-28T16:32:31.161Z,3.92
2023-09-28T16:34:57.974Z,3.95
2023-09-28T16:37:24.654Z,4.07
2023-09-28T16:39:51.479Z,4.20
2023-09-28T16:42:18.363Z,4.20
2023-09-28T16:44:45.147Z,4.55
2023-09-28T16:47:12.069Z,4.27
2023-09-28T16:49:38.820Z,3.75
2023-09-28T16:52:06.347Z,4.80
2023-09-28T16:54:33.095Z,4.30
2023-09-28T16:56:59.819Z,4.57
2023-09-28T16:59:26.671Z,3.90
2023-09-28T17:01:53.519Z,4.53
2023-09-28T17:04:20.581Z,4.40
2023-09-28T17:06:47.413Z,3.92
2023-09-28T17:09:14.663Z,3.93
2023-09-28T17:11:41.913Z,5.47
2023-09-28T17:14:08.905Z,4.72
2023-09-28T17:16:35.773Z,4.78
2023-09-28T17:19:02.787Z,4.82
2023-09-28T17:21:29.578Z,5.38
2023-09-28T17:23:56.487Z,4.40
2023-09-28T17:26:23.384Z,5.72
2023-09-28T17:28:51.215Z,5.05
2023-09-28T17:33:46.008Z,5.47
2023-09-28T17:36:12.747Z,5.30
2023-09-28T17:38:39.524Z,5.63
2023-09-28T17:41:08.463Z,5.83
2023-09-28T17:43:38.318Z,5.35
2023-09-28T17:46:05.979Z,4.80
2023-09-28T17:48:32.813Z,5.15
2023-09-28T17:50:59.730Z,5.35
2023-09-28T17:53:26.483Z,5.63
2023-09-28T17:58:40.401Z,5.78
2023-09-28T18:01:07.238Z,5.73
2023-09-28T18:03:34.117Z,5.47
2023-09-28T18:06:00.908Z,6.80
2023-09-28T18:10:54.659Z,5.77
2023-09-28T18:13:21.419Z,5.57
2023-09-28T18:15:49.834Z,6.33
2023-09-28T18:18:17.100Z,5.22
2023-09-28T18:20:44.008Z,5.75
2023-09-28T18:23:10.846Z,5.53
2023-09-28T18:25:37.873Z,6.27
2023-09-28T18:28:06.331Z,5.93
2023-09-28T18:30:33.137Z,6.15
2023-09-28T18:33:00.187Z,6.82
2023-09-28T18:35:27.647Z,6.53
2023-09-28T18:37:56.906Z,5.40
2023-09-28T18:40:23.763Z,6.45
2023-09-28T18:42:50.672Z,6.18
2023-09-28T18:45:18.140Z,6.47
2023-09-28T18:47:45.137Z,6.60
2023-09-28T18:50:12.042Z,6.00
2023-09-28T18:52:39.017Z,6.40
2023-09-28T18:55:06.323Z,6.17
2023-09-28T18:57:34.186Z,7.07
2023-09-28T19:00:01.455Z,6.50
2023-09-28T19:02:28.970Z,6.65
2023-09-28T19:07:24.415Z,5.95
2023-09-28T19:09:51.660Z,7.00
2023-09-28T19:12:18.447Z,6.82
2023-09-28T19:14:45.304Z,5.40
2023-09-28T19:17:12.147Z,7.13
2023-09-28T19:19:38.946Z,6.30
2023-09-28T19:22:06.101Z,6.53
2023-09-28T19:24:32.972Z,6.93
2023-09-28T19:27:00.084Z,6.70
2023-09-28T19:29:26.937Z,6.07
2023-09-28T19:31:57.267Z,6.93
2023-09-28T19:34:24.259Z,9.55
2023-09-28T19:36:51.556Z,7.17
2023-09-28T19:39:21.247Z,7.05
2023-09-28T19:41:48.043Z,12.05
2023-09-28T19:44:15.002Z,8.97
2023-09-28T19:46:41.792Z,9.00
2023-09-28T19:49:08.605Z,7.60
2023-09-28T19:51:36.232Z,7.93
2023-09-28T19:56:30.964Z,9.63
2023-09-28T19:58:58.603Z,13.52
2023-09-28T20:03:53.325Z,11.85
2023-09-28T20:06:20.187Z,8.00
2023-09-28T20:08:47.135Z,7.87
2023-09-28T20:11:14.058Z,8.40
2023-09-28T20:13:41.294Z,8.98
2023-09-28T20:16:08.095Z,8.45
2023-09-28T20:18:34.989Z,8.77
2023-09-28T20:21:03.197Z,9.10
2023-09-28T20:23:30.641Z,9.23
2023-09-28T20:25:57.495Z,8.98
2023-09-28T20:28:24.262Z,9.03
2023-09-28T20:30:51.098Z,9.87
2023-09-28T20:33:17.977Z,9.97
2023-09-28T20:35:45.897Z,8.87
2023-09-28T20:38:13.144Z,8.60
2023-09-28T20:40:40.963Z,8.73
2023-09-28T20:43:08.759Z,9.63
2023-09-28T20:45:39.699Z,9.07
2023-09-28T20:48:08.002Z,9.80
2023-09-28T20:50:35.269Z,9.30
2023-09-28T20:53:03.144Z,9.88
2023-09-28T20:55:31.140Z,10.57
2023-09-28T20:57:57.969Z,10.15
2023-09-28T21:00:25.460Z,10.43
2023-09-28T21:02:53.073Z,10.85
2023-09-28T21:07:46.660Z,9.47
2023-09-28T21:10:14.466Z,9.67
2023-09-28T21:12:41.327Z,9.50
2023-09-28T21:15:10.131Z,9.53
2023-09-28T21:17:39.962Z,10.48
2023-09-28T21:20:08.951Z,10.25
2023-09-28T21:22:35.940Z,10.95
2023-09-28T21:25:02.927Z,10.35
2023-09-28T21:27:29.699Z,10.27
2023-09-28T21:29:56.538Z,10.93
2023-09-28T21:32:25.015Z,11.07
2023-09-28T21:34:53.286Z,11.02
2023-09-28T21:37:20.084Z,10.55
2023-09-28T21:39:46.918Z,11.50
2023-09-28T21:42:15.424Z,11.23
2023-09-28T21:44:42.351Z,10.45
2023-09-28T21:47:09.230Z,10.90
2023-09-28T21:49:36.034Z,10.77
2023-09-28T21:52:02.839Z,11.10
2023-09-28T21:54:29.674Z,11.00
2023-09-28T21:56:56.499Z,10.43
2023-09-28T21:59:23.233Z,11.10
2023-09-28T22:01:50.063Z,9.93
2023-09-28T22:04:16.897Z,10.17
2023-09-28T22:06:43.733Z,10.07
2023-09-28T22:09:11.668Z,10.27
2023-09-28T22:11:38.572Z,10.15
2023-09-28T22:14:05.897Z,10.75
2023-09-28T22:16:32.750Z,10.20
2023-09-28T22:18:59.492Z,9.97
2023-09-28T22:21:26.295Z,10.97
2023-09-28T22:23:53.972Z,10.03
2023-09-28T22:28:48.392Z,11.10
2023-09-28T22:31:15.164Z,9.43
2023-09-28T22:33:42.047Z,9.57
2023-09-28T22:36:08.861Z,10.17
2023-09-28T22:38:37.159Z,9.83
2023-09-28T22:41:04.681Z,10.60
2023-09-28T22:43:31.685Z,10.25
2023-09-28T22:45:58.671Z,9.80
2023-09-28T22:48:25.758Z,10.57
2023-09-28T22:50:52.777Z,9.70
2023-09-28T22:53:19.726Z,10.57
2023-09-28T22:55:46.890Z,9.95
2023-09-28T22:58:13.756Z,9.43
2023-09-28T23:00:40.652Z,9.13
2023-09-28T23:03:07.548Z,9.83
2023-09-28T23:05:34.661Z,8.68
2023-09-28T23:08:02.739Z,9.37
2023-09-28T23:10:30.289Z,8.85
2023-09-28T23:15:24.297Z,9.30
2023-09-28T23:17:51.176Z,7.73
2023-09-28T23:20:24.087Z,7.87
2023-09-28T23:22:53.552Z,8.25
2023-09-28T23:25:20.661Z,8.25
2023-09-28T23:27:49.591Z,9.30
2023-09-28T23:30:20.250Z,7.25
2023-09-28T23:32:50.469Z,7.47
2023-09-28T23:35:24.729Z,8.15
2023-09-28T23:37:53.633Z,7.28
2023-09-28T23:40:23.829Z,7.55
2023-09-28T23:42:51.954Z,7.57
2023-09-28T23:45:20.872Z,6.90
2023-09-28T23:47:49.029Z,6.72
2023-09-28T23:50:18.189Z,7.07
2023-09-28T23:52:45.319Z,7.07
2023-09-28T23:55:13.736Z,7.47
